sensor_id;sensor_type;location;lat;lon;timestamp;P1;durP1;ratioP1;P2;durP2;ratioP2
19173;SDS011;9719;49.322;8.536;2023-01-16T00:01:00;1.63;;;1.50;;
19173;SDS011;9719;49.322;8.536;2023-01-16T00:06:02;5.88;;;2.30;;
19173;SDS011;9719;49.322;8.536;2023-01-16T00:11:05;2.38;;;1.45;;
19173;SDS011;9719;49.322;8.536;2023-01-16T00:16:08;1.77;;;1.30;;
19173;SDS011;9719;49.322;8.536;2023-01-16T00:21:10;4.05;;;1.55;;
19173;SDS011;9719;49.322;8.536;2023-01-16T00:26:12;3.28;;;1.50;;
19173;SDS011;9719;49.322;8.536;2023-01-16T00:31:15;1.80;;;1.70;;
19173;SDS011;9719;49.322;8.536;2023-01-16T00:36:17;2.80;;;2.03;;
19173;SDS011;9719;49.322;8.536;2023-01-16T00:41:19;1.05;;;1.05;;
19173;SDS011;9719;49.322;8.536;2023-01-16T00:46:23;4.30;;;1.50;;
19173;SDS011;9719;49.322;8.536;2023-01-16T00:51:24;2.22;;;1.08;;
19173;SDS011;9719;49.322;8.536;2023-01-16T00:56:26;1.95;;;1.30;;
19173;SDS011;9719;49.322;8.536;2023-01-16T01:01:29;2.97;;;1.90;;
19173;SDS011;9719;49.322;8.536;2023-01-16T01:06:31;2.27;;;1.60;;
19173;SDS011;9719;49.322;8.536;2023-01-16T01:11:33;1.47;;;1.37;;
19173;SDS011;9719;49.322;8.536;2023-01-16T01:16:37;2.90;;;1.77;;
19173;SDS011;9719;49.322;8.536;2023-01-16T01:21:40;1.55;;;1.45;;
19173;SDS011;9719;49.322;8.536;2023-01-16T01:26:42;2.08;;;1.38;;
19173;SDS011;9719;49.322;8.536;2023-01-16T01:31:45;2.13;;;1.27;;
19173;SDS011;9719;49.322;8.536;2023-01-16T01:36:47;3.33;;;1.38;;
19173;SDS011;9719;49.322;8.536;2023-01-16T01:41:48;2.72;;;1.35;;
19173;SDS011;9719;49.322;8.536;2023-01-16T01:46:52;2.38;;;1.48;;
19173;SDS011;9719;49.322;8.536;2023-01-16T01:51:54;1.60;;;1.50;;
19173;SDS011;9719;49.322;8.536;2023-01-16T01:57:00;2.33;;;1.70;;
19173;SDS011;9719;49.322;8.536;2023-01-16T02:02:06;1.87;;;1.50;;
19173;SDS011;9719;49.322;8.536;2023-01-16T02:07:16;2.97;;;1.50;;
19173;SDS011;9719;49.322;8.536;2023-01-16T02:12:20;2.40;;;2.27;;
19173;SDS011;9719;49.322;8.536;2023-01-16T02:17:23;2.87;;;2.60;;
19173;SDS011;9719;49.322;8.536;2023-01-16T02:28:26;3.00;;;1.80;;
19173;SDS011;9719;49.322;8.536;2023-01-16T02:33:57;2.05;;;1.35;;
19173;SDS011;9719;49.322;8.536;2023-01-16T02:39:11;2.30;;;1.52;;
19173;SDS011;9719;49.322;8.536;2023-01-16T02:44:23;3.42;;;1.95;;
19173;SDS011;9719;49.322;8.536;2023-01-16T02:49:31;2.70;;;2.50;;
19173;SDS011;9719;49.322;8.536;2023-01-16T02:54:41;3.03;;;2.83;;
19173;SDS011;9719;49.322;8.536;2023-01-16T02:59:52;3.53;;;2.55;;
19173;SDS011;9719;49.322;8.536;2023-01-16T03:04:55;2.27;;;2.07;;
19173;SDS011;9719;49.322;8.536;2023-01-16T03:10:00;2.80;;;1.50;;
19173;SDS011;9719;49.322;8.536;2023-01-16T03:15:12;1.87;;;1.67;;
19173;SDS011;9719;49.322;8.536;2023-01-16T03:20:24;3.50;;;1.93;;
19173;SDS011;9719;49.322;8.536;2023-01-16T03:25:37;2.13;;;1.37;;
19173;SDS011;9719;49.322;8.536;2023-01-16T03:30:46;1.30;;;1.20;;
19173;SDS011;9719;49.322;8.536;2023-01-16T03:35:53;4.78;;;2.03;;
19173;SDS011;9719;49.322;8.536;2023-01-16T03:40:59;3.58;;;1.55;;
19173;SDS011;9719;49.322;8.536;2023-01-16T03:46:04;4.80;;;1.70;;
19173;SDS011;9719;49.322;8.536;2023-01-16T03:51:13;3.33;;;1.50;;
19173;SDS011;9719;49.322;8.536;2023-01-16T03:56:20;2.20;;;1.20;;
19173;SDS011;9719;49.322;8.536;2023-01-16T04:01:26;1.92;;;1.70;;
19173;SDS011;9719;49.322;8.536;2023-01-16T04:06:36;1.70;;;1.60;;
19173;SDS011;9719;49.322;8.536;2023-01-16T04:11:45;5.80;;;2.70;;
19173;SDS011;9719;49.322;8.536;2023-01-16T04:16:48;2.75;;;1.95;;
19173;SDS011;9719;49.322;8.536;2023-01-16T04:21:52;1.23;;;1.10;;
19173;SDS011;9719;49.322;8.536;2023-01-16T04:26:54;2.80;;;1.80;;
19173;SDS011;9719;49.322;8.536;2023-01-16T04:31:56;1.87;;;1.27;;
19173;SDS011;9719;49.322;8.536;2023-01-16T04:36:59;3.00;;;1.50;;
19173;SDS011;9719;49.322;8.536;2023-01-16T04:42:01;2.88;;;1.80;;
19173;SDS011;9719;49.322;8.536;2023-01-16T04:47:03;2.63;;;1.52;;
19173;SDS011;9719;49.322;8.536;2023-01-16T04:52:06;1.73;;;1.35;;
19173;SDS011;9719;49.322;8.536;2023-01-16T04:57:08;2.17;;;1.13;;
19173;SDS011;9719;49.322;8.536;2023-01-16T05:02:10;1.47;;;1.20;;
19173;SDS011;9719;49.322;8.536;2023-01-16T05:07:13;2.47;;;1.30;;
19173;SDS011;9719;49.322;8.536;2023-01-16T05:12:15;1.55;;;1.45;;
19173;SDS011;9719;49.322;8.536;2023-01-16T05:17:16;1.93;;;1.70;;
19173;SDS011;9719;49.322;8.536;2023-01-16T05:22:24;2.50;;;1.27;;
19173;SDS011;9719;49.322;8.536;2023-01-16T05:27:26;1.37;;;1.23;;
19173;SDS011;9719;49.322;8.536;2023-01-16T05:32:28;1.10;;;1.00;;
19173;SDS011;9719;49.322;8.536;2023-01-16T05:37:31;1.40;;;1.30;;
19173;SDS011;9719;49.322;8.536;2023-01-16T05:42:33;1.83;;;1.13;;
19173;SDS011;9719;49.322;8.536;2023-01-16T05:47:34;2.00;;;1.23;;
19173;SDS011;9719;49.322;8.536;2023-01-16T05:52:38;1.40;;;1.30;;
19173;SDS011;9719;49.322;8.536;2023-01-16T05:57:39;2.05;;;1.50;;
19173;SDS011;9719;49.322;8.536;2023-01-16T06:02:41;1.73;;;1.50;;
19173;SDS011;9719;49.322;8.536;2023-01-16T06:07:45;2.13;;;1.40;;
19173;SDS011;9719;49.322;8.536;2023-01-16T06:12:46;2.45;;;1.55;;
19173;SDS011;9719;49.322;8.536;2023-01-16T06:17:48;1.60;;;1.50;;
19173;SDS011;9719;49.322;8.536;2023-01-16T06:22:53;3.03;;;2.23;;
19173;SDS011;9719;49.322;8.536;2023-01-16T06:27:55;1.42;;;1.35;;
19173;SDS011;9719;49.322;8.536;2023-01-16T06:32:57;2.25;;;1.67;;
19173;SDS011;9719;49.322;8.536;2023-01-16T06:38:00;2.58;;;1.90;;
19173;SDS011;9719;49.322;8.536;2023-01-16T06:43:02;3.23;;;1.70;;
19173;SDS011;9719;49.322;8.536;2023-01-16T06:48:04;2.30;;;2.20;;
19173;SDS011;9719;49.322;8.536;2023-01-16T06:53:07;1.30;;;1.20;;
19173;SDS011;9719;49.322;8.536;2023-01-16T06:58:09;1.57;;;1.30;;
19173;SDS011;9719;49.322;8.536;2023-01-16T07:03:11;2.55;;;1.42;;
19173;SDS011;9719;49.322;8.536;2023-01-16T07:08:15;1.63;;;1.30;;
19173;SDS011;9719;49.322;8.536;2023-01-16T07:13:17;3.50;;;1.77;;
19173;SDS011;9719;49.322;8.536;2023-01-16T07:18:26;1.53;;;1.43;;
19173;SDS011;9719;49.322;8.536;2023-01-16T07:23:47;4.90;;;2.90;;
19173;SDS011;9719;49.322;8.536;2023-01-16T07:28:54;1.37;;;1.27;;
19173;SDS011;9719;49.322;8.536;2023-01-16T07:33:57;1.77;;;1.37;;
19173;SDS011;9719;49.322;8.536;2023-01-16T07:39:00;1.20;;;1.10;;
19173;SDS011;9719;49.322;8.536;2023-01-16T07:44:02;1.63;;;1.40;;
19173;SDS011;9719;49.322;8.536;2023-01-16T07:49:03;1.40;;;1.30;;
19173;SDS011;9719;49.322;8.536;2023-01-16T07:54:07;2.30;;;1.70;;
19173;SDS011;9719;49.322;8.536;2023-01-16T07:59:09;1.40;;;1.30;;
19173;SDS011;9719;49.322;8.536;2023-01-16T08:04:11;1.47;;;1.37;;
19173;SDS011;9719;49.322;8.536;2023-01-16T08:09:14;2.17;;;1.70;;
19173;SDS011;9719;49.322;8.536;2023-01-16T08:14:16;1.87;;;1.77;;
19173;SDS011;9719;49.322;8.536;2023-01-16T08:19:18;1.60;;;1.50;;
19173;SDS011;9719;49.322;8.536;2023-01-16T08:24:21;1.52;;;1.38;;
19173;SDS011;9719;49.322;8.536;2023-01-16T08:29:25;2.17;;;1.45;;
19173;SDS011;9719;49.322;8.536;2023-01-16T08:34:27;2.53;;;1.43;;
19173;SDS011;9719;49.322;8.536;2023-01-16T08:39:30;1.77;;;1.67;;
19173;SDS011;9719;49.322;8.536;2023-01-16T08:44:32;3.33;;;1.83;;
19173;SDS011;9719;49.322;8.536;2023-01-16T08:49:51;1.40;;;1.30;;
19173;SDS011;9719;49.322;8.536;2023-01-16T08:55:11;1.67;;;1.37;;
19173;SDS011;9719;49.322;8.536;2023-01-16T09:00:13;2.23;;;1.53;;
19173;SDS011;9719;49.322;8.536;2023-01-16T09:05:15;2.53;;;2.33;;
19173;SDS011;9719;49.322;8.536;2023-01-16T09:10:19;1.50;;;1.40;;
19173;SDS011;9719;49.322;8.536;2023-01-16T09:15:21;1.53;;;1.40;;
19173;SDS011;9719;49.322;8.536;2023-01-16T09:20:22;1.13;;;1.03;;
19173;SDS011;9719;49.322;8.536;2023-01-16T09:25:26;1.37;;;1.27;;
19173;SDS011;9719;49.322;8.536;2023-01-16T09:30:28;1.45;;;1.35;;
19173;SDS011;9719;49.322;8.536;2023-01-16T09:35:30;1.50;;;1.30;;
19173;SDS011;9719;49.322;8.536;2023-01-16T09:40:33;1.92;;;1.13;;
19173;SDS011;9719;49.322;8.536;2023-01-16T09:45:34;2.10;;;1.55;;
19173;SDS011;9719;49.322;8.536;2023-01-16T09:50:38;2.67;;;1.40;;
19173;SDS011;9719;49.322;8.536;2023-01-16T09:55:45;2.03;;;1.60;;
19173;SDS011;9719;49.322;8.536;2023-01-16T10:01:08;3.15;;;1.65;;
19173;SDS011;9719;49.322;8.536;2023-01-16T10:06:20;1.25;;;1.15;;
19173;SDS011;9719;49.322;8.536;2023-01-16T10:11:30;1.40;;;1.40;;
19173;SDS011;9719;49.322;8.536;2023-01-16T10:16:42;1.70;;;1.60;;
19173;SDS011;9719;49.322;8.536;2023-01-16T10:21:57;1.55;;;1.45;;
19173;SDS011;9719;49.322;8.536;2023-01-16T10:27:11;1.55;;;1.45;;
19173;SDS011;9719;49.322;8.536;2023-01-16T10:32:19;1.70;;;1.60;;
19173;SDS011;9719;49.322;8.536;2023-01-16T10:37:27;1.97;;;1.77;;
19173;SDS011;9719;49.322;8.536;2023-01-16T10:42:31;1.57;;;1.40;;
19173;SDS011;9719;49.322;8.536;2023-01-16T10:47:52;1.92;;;1.83;;
19173;SDS011;9719;49.322;8.536;2023-01-16T10:53:11;2.35;;;1.60;;
19173;SDS011;9719;49.322;8.536;2023-01-16T10:58:20;1.63;;;1.53;;
19173;SDS011;9719;49.322;8.536;2023-01-16T11:03:30;2.22;;;2.03;;
19173;SDS011;9719;49.322;8.536;2023-01-16T11:08:34;2.88;;;1.52;;
19173;SDS011;9719;49.322;8.536;2023-01-16T11:13:37;3.22;;;2.05;;
19173;SDS011;9719;49.322;8.536;2023-01-16T11:18:58;1.52;;;1.40;;
19173;SDS011;9719;49.322;8.536;2023-01-16T11:24:16;1.73;;;1.50;;
19173;SDS011;9719;49.322;8.536;2023-01-16T11:29:22;1.70;;;1.33;;
19173;SDS011;9719;49.322;8.536;2023-01-16T11:34:26;2.45;;;1.50;;
19173;SDS011;9719;49.322;8.536;2023-01-16T11:39:30;2.60;;;1.70;;
19173;SDS011;9719;49.322;8.536;2023-01-16T11:44:35;2.37;;;1.43;;
19173;SDS011;9719;49.322;8.536;2023-01-16T11:49:55;1.83;;;1.73;;
19173;SDS011;9719;49.322;8.536;2023-01-16T11:54:57;2.33;;;1.60;;
19173;SDS011;9719;49.322;8.536;2023-01-16T12:00:15;1.80;;;1.70;;
19173;SDS011;9719;49.322;8.536;2023-01-16T12:05:31;2.78;;;1.55;;
19173;SDS011;9719;49.322;8.536;2023-01-16T12:10:57;1.52;;;1.42;;
19173;SDS011;9719;49.322;8.536;2023-01-16T12:16:12;1.65;;;1.20;;
19173;SDS011;9719;49.322;8.536;2023-01-16T12:21:27;1.10;;;1.00;;
19173;SDS011;9719;49.322;8.536;2023-01-16T12:26:36;1.25;;;1.17;;
19173;SDS011;9719;49.322;8.536;2023-01-16T12:31:55;2.53;;;1.40;;
19173;SDS011;9719;49.322;8.536;2023-01-16T12:37:09;1.48;;;1.10;;
19173;SDS011;9719;49.322;8.536;2023-01-16T12:42:26;1.02;;;1.02;;
19173;SDS011;9719;49.322;8.536;2023-01-16T12:47:58;0.98;;;0.93;;
19173;SDS011;9719;49.322;8.536;2023-01-16T12:53:23;1.00;;;1.00;;
19173;SDS011;9719;49.322;8.536;2023-01-16T12:58:35;1.10;;;1.10;;
19173;SDS011;9719;49.322;8.536;2023-01-16T13:03:44;1.05;;;1.05;;
19173;SDS011;9719;49.322;8.536;2023-01-16T13:08:53;1.38;;;1.30;;
19173;SDS011;9719;49.322;8.536;2023-01-16T13:14:03;1.23;;;1.13;;
19173;SDS011;9719;49.322;8.536;2023-01-16T13:19:11;1.50;;;1.42;;
19173;SDS011;9719;49.322;8.536;2023-01-16T13:24:16;1.50;;;1.40;;
19173;SDS011;9719;49.322;8.536;2023-01-16T13:29:24;1.95;;;1.40;;
19173;SDS011;9719;49.322;8.536;2023-01-16T13:34:32;1.73;;;1.55;;
19173;SDS011;9719;49.322;8.536;2023-01-16T13:39:50;1.05;;;1.05;;
19173;SDS011;9719;49.322;8.536;2023-01-16T13:45:07;1.27;;;1.27;;
19173;SDS011;9719;49.322;8.536;2023-01-16T13:50:38;1.23;;;1.17;;
19173;SDS011;9719;49.322;8.536;2023-01-16T13:55:45;1.35;;;0.90;;
19173;SDS011;9719;49.322;8.536;2023-01-16T14:00:46;1.00;;;1.00;;
19173;SDS011;9719;49.322;8.536;2023-01-16T14:17:00;1.30;;;1.30;;
19173;SDS011;9719;49.322;8.536;2023-01-16T14:22:03;1.20;;;1.10;;
19173;SDS011;9719;49.322;8.536;2023-01-16T14:27:24;1.30;;;1.13;;
19173;SDS011;9719;49.322;8.536;2023-01-16T14:32:31;1.00;;;1.00;;
19173;SDS011;9719;49.322;8.536;2023-01-16T14:37:38;1.17;;;1.15;;
19173;SDS011;9719;49.322;8.536;2023-01-16T14:42:44;2.45;;;1.10;;
19173;SDS011;9719;49.322;8.536;2023-01-16T14:53:56;0.80;;;0.80;;
19173;SDS011;9719;49.322;8.536;2023-01-16T14:59:18;0.80;;;0.80;;
19173;SDS011;9719;49.322;8.536;2023-01-16T15:04:27;0.90;;;0.90;;
19173;SDS011;9719;49.322;8.536;2023-01-16T15:09:36;0.80;;;0.80;;
19173;SDS011;9719;49.322;8.536;2023-01-16T15:14:50;1.00;;;0.90;;
19173;SDS011;9719;49.322;8.536;2023-01-16T15:19:54;0.80;;;0.80;;
19173;SDS011;9719;49.322;8.536;2023-01-16T15:25:20;0.80;;;0.80;;
19173;SDS011;9719;49.322;8.536;2023-01-16T15:30:34;1.10;;;1.10;;
19173;SDS011;9719;49.322;8.536;2023-01-16T15:35:37;3.33;;;1.02;;
19173;SDS011;9719;49.322;8.536;2023-01-16T15:40:46;1.50;;;0.87;;
19173;SDS011;9719;49.322;8.536;2023-01-16T15:45:52;1.50;;;1.40;;
19173;SDS011;9719;49.322;8.536;2023-01-16T15:51:19;1.60;;;1.20;;
19173;SDS011;9719;49.322;8.536;2023-01-16T15:56:24;0.90;;;0.90;;
19173;SDS011;9719;49.322;8.536;2023-01-16T16:01:32;1.00;;;1.00;;
19173;SDS011;9719;49.322;8.536;2023-01-16T16:06:35;1.25;;;1.25;;
19173;SDS011;9719;49.322;8.536;2023-01-16T16:11:40;1.25;;;1.17;;
19173;SDS011;9719;49.322;8.536;2023-01-16T16:16:59;1.30;;;1.20;;
19173;SDS011;9719;49.322;8.536;2023-01-16T16:22:19;0.90;;;0.90;;
19173;SDS011;9719;49.322;8.536;2023-01-16T16:27:43;1.25;;;1.13;;
19173;SDS011;9719;49.322;8.536;2023-01-16T16:32:45;1.10;;;1.10;;
19173;SDS011;9719;49.322;8.536;2023-01-16T16:37:47;1.27;;;0.93;;
19173;SDS011;9719;49.322;8.536;2023-01-16T16:42:51;1.13;;;1.13;;
19173;SDS011;9719;49.322;8.536;2023-01-16T16:53:33;1.17;;;1.17;;
19173;SDS011;9719;49.322;8.536;2023-01-16T16:58:40;1.13;;;1.10;;
19173;SDS011;9719;49.322;8.536;2023-01-16T17:03:43;0.93;;;0.93;;
19173;SDS011;9719;49.322;8.536;2023-01-16T17:08:46;1.00;;;1.00;;
19173;SDS011;9719;49.322;8.536;2023-01-16T17:13:49;0.98;;;0.98;;
19173;SDS011;9719;49.322;8.536;2023-01-16T17:18:52;1.10;;;1.10;;
19173;SDS011;9719;49.322;8.536;2023-01-16T17:23:58;2.28;;;2.03;;
19173;SDS011;9719;49.322;8.536;2023-01-16T17:29:01;1.10;;;1.10;;
19173;SDS011;9719;49.322;8.536;2023-01-16T17:34:03;1.10;;;1.10;;
19173;SDS011;9719;49.322;8.536;2023-01-16T17:39:05;1.20;;;1.20;;
19173;SDS011;9719;49.322;8.536;2023-01-16T17:44:09;1.30;;;1.20;;
19173;SDS011;9719;49.322;8.536;2023-01-16T17:49:33;0.90;;;0.90;;
19173;SDS011;9719;49.322;8.536;2023-01-16T17:54:56;0.95;;;0.95;;
19173;SDS011;9719;49.322;8.536;2023-01-16T18:00:17;0.82;;;0.82;;
19173;SDS011;9719;49.322;8.536;2023-01-16T18:05:19;1.02;;;1.02;;
19173;SDS011;9719;49.322;8.536;2023-01-16T18:10:21;1.00;;;0.90;;
19173;SDS011;9719;49.322;8.536;2023-01-16T18:15:24;1.05;;;1.05;;
19173;SDS011;9719;49.322;8.536;2023-01-16T18:20:43;1.30;;;1.30;;
19173;SDS011;9719;49.322;8.536;2023-01-16T18:25:46;1.10;;;1.10;;
19173;SDS011;9719;49.322;8.536;2023-01-16T18:30:50;1.20;;;1.20;;
19173;SDS011;9719;49.322;8.536;2023-01-16T18:35:59;1.20;;;1.20;;
19173;SDS011;9719;49.322;8.536;2023-01-16T18:41:01;1.10;;;1.10;;
19173;SDS011;9719;49.322;8.536;2023-01-16T18:46:22;1.10;;;1.10;;
19173;SDS011;9719;49.322;8.536;2023-01-16T18:51:41;1.27;;;1.00;;
19173;SDS011;9719;49.322;8.536;2023-01-16T18:57:01;1.10;;;1.10;;
19173;SDS011;9719;49.322;8.536;2023-01-16T19:02:38;1.10;;;1.10;;
19173;SDS011;9719;49.322;8.536;2023-01-16T19:07:43;1.03;;;1.03;;
19173;SDS011;9719;49.322;8.536;2023-01-16T19:12:47;1.93;;;1.00;;
19173;SDS011;9719;49.322;8.536;2023-01-16T19:17:51;1.00;;;1.00;;
19173;SDS011;9719;49.322;8.536;2023-01-16T19:22:55;1.27;;;1.20;;
19173;SDS011;9719;49.322;8.536;2023-01-16T19:27:57;0.90;;;0.90;;
19173;SDS011;9719;49.322;8.536;2023-01-16T19:33:00;1.30;;;1.27;;
19173;SDS011;9719;49.322;8.536;2023-01-16T19:38:02;1.20;;;1.10;;
19173;SDS011;9719;49.322;8.536;2023-01-16T19:43:04;0.93;;;0.93;;
19173;SDS011;9719;49.322;8.536;2023-01-16T19:48:24;1.43;;;1.43;;
19173;SDS011;9719;49.322;8.536;2023-01-16T19:53:26;1.23;;;1.23;;
19173;SDS011;9719;49.322;8.536;2023-01-16T19:58:28;1.20;;;1.20;;
19173;SDS011;9719;49.322;8.536;2023-01-16T20:03:31;3.10;;;1.40;;
19173;SDS011;9719;49.322;8.536;2023-01-16T20:08:33;2.27;;;1.80;;
19173;SDS011;9719;49.322;8.536;2023-01-16T20:13:35;1.57;;;1.40;;
19173;SDS011;9719;49.322;8.536;2023-01-16T20:18:38;1.57;;;1.47;;
19173;SDS011;9719;49.322;8.536;2023-01-16T20:23:40;2.00;;;1.90;;
19173;SDS011;9719;49.322;8.536;2023-01-16T20:28:41;2.27;;;1.73;;
19173;SDS011;9719;49.322;8.536;2023-01-16T20:33:46;1.77;;;1.67;;
19173;SDS011;9719;49.322;8.536;2023-01-16T20:38:48;1.73;;;1.60;;
19173;SDS011;9719;49.322;8.536;2023-01-16T20:43:49;2.00;;;1.90;;
19173;SDS011;9719;49.322;8.536;2023-01-16T20:49:10;1.80;;;1.70;;
19173;SDS011;9719;49.322;8.536;2023-01-16T20:54:12;1.40;;;1.40;;
19173;SDS011;9719;49.322;8.536;2023-01-16T20:59:13;2.10;;;2.00;;
19173;SDS011;9719;49.322;8.536;2023-01-16T21:04:17;1.70;;;1.60;;
19173;SDS011;9719;49.322;8.536;2023-01-16T21:09:19;1.97;;;1.87;;
19173;SDS011;9719;49.322;8.536;2023-01-16T21:14:21;2.60;;;2.40;;
19173;SDS011;9719;49.322;8.536;2023-01-16T21:19:25;2.00;;;1.90;;
19173;SDS011;9719;49.322;8.536;2023-01-16T21:24:44;2.80;;;1.77;;
19173;SDS011;9719;49.322;8.536;2023-01-16T21:29:46;2.00;;;1.85;;
19173;SDS011;9719;49.322;8.536;2023-01-16T21:34:49;1.83;;;1.70;;
19173;SDS011;9719;49.322;8.536;2023-01-16T21:39:52;2.85;;;1.88;;
19173;SDS011;9719;49.322;8.536;2023-01-16T21:44:55;1.80;;;1.70;;
19173;SDS011;9719;49.322;8.536;2023-01-16T21:50:15;3.80;;;2.20;;
19173;SDS011;9719;49.322;8.536;2023-01-16T21:55:17;1.77;;;1.40;;
19173;SDS011;9719;49.322;8.536;2023-01-16T22:00:19;2.03;;;1.83;;
19173;SDS011;9719;49.322;8.536;2023-01-16T22:05:22;1.70;;;1.60;;
19173;SDS011;9719;49.322;8.536;2023-01-16T22:10:24;1.73;;;1.63;;
19173;SDS011;9719;49.322;8.536;2023-01-16T22:15:26;2.10;;;2.00;;
19173;SDS011;9719;49.322;8.536;2023-01-16T22:20:47;2.50;;;2.30;;
19173;SDS011;9719;49.322;8.536;2023-01-16T22:25:54;3.13;;;1.97;;
19173;SDS011;9719;49.322;8.536;2023-01-16T22:30:56;2.57;;;2.33;;
19173;SDS011;9719;49.322;8.536;2023-01-16T22:36:00;2.87;;;1.97;;
19173;SDS011;9719;49.322;8.536;2023-01-16T22:41:05;2.30;;;2.20;;
19173;SDS011;9719;49.322;8.536;2023-01-16T22:46:08;2.23;;;1.57;;
19173;SDS011;9719;49.322;8.536;2023-01-16T22:51:23;2.17;;;1.95;;
19173;SDS011;9719;49.322;8.536;2023-01-16T22:56:26;2.07;;;1.87;;
19173;SDS011;9719;49.322;8.536;2023-01-16T23:01:28;2.20;;;2.07;;
19173;SDS011;9719;49.322;8.536;2023-01-16T23:06:31;7.18;;;2.92;;
19173;SDS011;9719;49.322;8.536;2023-01-16T23:11:34;4.30;;;3.35;;
19173;SDS011;9719;49.322;8.536;2023-01-16T23:16:37;4.75;;;2.13;;
19173;SDS011;9719;49.322;8.536;2023-01-16T23:21:41;2.00;;;1.90;;
19173;SDS011;9719;49.322;8.536;2023-01-16T23:26:44;3.27;;;1.97;;
19173;SDS011;9719;49.322;8.536;2023-01-16T23:31:46;2.70;;;2.53;;
19173;SDS011;9719;49.322;8.536;2023-01-16T23:36:50;2.97;;;2.10;;
19173;SDS011;9719;49.322;8.536;2023-01-16T23:41:53;2.27;;;2.17;;
19173;SDS011;9719;49.322;8.536;2023-01-16T23:47:13;2.33;;;2.17;;
19173;SDS011;9719;49.322;8.536;2023-01-16T23:52:20;3.37;;;2.33;;
19173;SDS011;9719;49.322;8.536;2023-01-16T23:57:25;2.83;;;2.60;;
